< < Back
Terminal Aerodrome Forecast


Current Version              Previous Versions:   1  2  3  4  5  6  7  8  9  

Terminal Aerodrome Forecast

946
FTUS44 KOHX 051700
TAFCSV
TAF
KCSV 051720Z 0518/0618 36010G18KT 6SM BR SCT009 OVC015
      TEMPO 0518/0522 5SM -SN BR OVC009
     FM060200 01006KT 5SM BR OVC015
     FM061400 04004KT P6SM SKC=



Latest METAR

990
SAUS70 KWBC 060400 RRD
MTRCSV
METAR KCSV 060353Z AUTO 03011KT 10SM BKN015 M09/M12 A3042 RMK AO2 SLP326
T10891122


USA.gov is the U.S. government's official web portal to all federal, state and local government web resources and services.